sensor_id;sensor_type;location;lat;lon;timestamp;P1;durP1;ratioP1;P2;durP2;ratioP2
59161;SDS011;44942;48.936;8.260;2023-05-10T00:00:46;0.87;;;0.70;;
59161;SDS011;44942;48.936;8.260;2023-05-10T00:05:46;1.20;;;0.73;;
59161;SDS011;44942;48.936;8.260;2023-05-10T00:10:47;2.70;;;0.70;;
59161;SDS011;44942;48.936;8.260;2023-05-10T00:15:47;0.60;;;0.60;;
59161;SDS011;44942;48.936;8.260;2023-05-10T00:20:48;0.90;;;0.80;;
59161;SDS011;44942;48.936;8.260;2023-05-10T00:25:49;0.70;;;0.63;;
59161;SDS011;44942;48.936;8.260;2023-05-10T00:30:49;0.60;;;0.60;;
59161;SDS011;44942;48.936;8.260;2023-05-10T00:35:50;1.10;;;0.73;;
59161;SDS011;44942;48.936;8.260;2023-05-10T00:40:50;2.03;;;0.70;;
59161;SDS011;44942;48.936;8.260;2023-05-10T00:45:51;1.23;;;0.70;;
59161;SDS011;44942;48.936;8.260;2023-05-10T00:55:53;1.33;;;0.50;;
59161;SDS011;44942;48.936;8.260;2023-05-10T01:00:54;1.15;;;0.60;;
59161;SDS011;44942;48.936;8.260;2023-05-10T01:05:56;0.88;;;0.57;;
59161;SDS011;44942;48.936;8.260;2023-05-10T01:10:56;0.98;;;0.52;;
59161;SDS011;44942;48.936;8.260;2023-05-10T01:15:57;1.02;;;0.70;;
59161;SDS011;44942;48.936;8.260;2023-05-10T01:21:17;3.22;;;0.75;;
59161;SDS011;44942;48.936;8.260;2023-05-10T01:26:33;0.70;;;0.70;;
59161;SDS011;44942;48.936;8.260;2023-05-10T01:37:10;0.73;;;0.70;;
59161;SDS011;44942;48.936;8.260;2023-05-10T01:42:17;0.80;;;0.70;;
59161;SDS011;44942;48.936;8.260;2023-05-10T01:47:29;2.10;;;0.80;;
59161;SDS011;44942;48.936;8.260;2023-05-10T01:52:36;0.85;;;0.80;;
59161;SDS011;44942;48.936;8.260;2023-05-10T02:02:52;1.42;;;0.95;;
59161;SDS011;44942;48.936;8.260;2023-05-10T02:07:54;0.82;;;0.70;;
59161;SDS011;44942;48.936;8.260;2023-05-10T02:12:56;1.88;;;0.90;;
59161;SDS011;44942;48.936;8.260;2023-05-10T02:17:59;1.13;;;0.80;;
59161;SDS011;44942;48.936;8.260;2023-05-10T02:23:02;0.82;;;0.80;;
59161;SDS011;44942;48.936;8.260;2023-05-10T02:28:04;1.45;;;0.82;;
59161;SDS011;44942;48.936;8.260;2023-05-10T02:33:06;0.80;;;0.80;;
59161;SDS011;44942;48.936;8.260;2023-05-10T02:43:09;0.70;;;0.70;;
59161;SDS011;44942;48.936;8.260;2023-05-10T02:48:13;1.20;;;0.82;;
59161;SDS011;44942;48.936;8.260;2023-05-10T02:53:15;1.23;;;0.98;;
59161;SDS011;44942;48.936;8.260;2023-05-10T02:58:19;1.70;;;0.90;;
59161;SDS011;44942;48.936;8.260;2023-05-10T03:03:20;0.98;;;0.80;;
59161;SDS011;44942;48.936;8.260;2023-05-10T03:08:22;2.00;;;0.90;;
59161;SDS011;44942;48.936;8.260;2023-05-10T03:13:29;6.68;;;1.20;;
59161;SDS011;44942;48.936;8.260;2023-05-10T03:18:47;1.00;;;0.90;;
59161;SDS011;44942;48.936;8.260;2023-05-10T03:23:58;0.93;;;0.70;;
59161;SDS011;44942;48.936;8.260;2023-05-10T03:29:02;0.80;;;0.77;;
59161;SDS011;44942;48.936;8.260;2023-05-10T03:34:06;1.80;;;0.80;;
59161;SDS011;44942;48.936;8.260;2023-05-10T03:39:06;1.23;;;0.88;;
59161;SDS011;44942;48.936;8.260;2023-05-10T03:44:07;1.17;;;0.90;;
59161;SDS011;44942;48.936;8.260;2023-05-10T03:49:08;0.97;;;0.80;;
59161;SDS011;44942;48.936;8.260;2023-05-10T03:54:08;1.30;;;0.87;;
59161;SDS011;44942;48.936;8.260;2023-05-10T03:59:09;2.90;;;0.77;;
59161;SDS011;44942;48.936;8.260;2023-05-10T04:04:09;0.90;;;0.80;;
59161;SDS011;44942;48.936;8.260;2023-05-10T04:09:10;2.40;;;0.80;;
59161;SDS011;44942;48.936;8.260;2023-05-10T04:14:10;1.43;;;1.00;;
59161;SDS011;44942;48.936;8.260;2023-05-10T04:19:11;1.20;;;0.90;;
59161;SDS011;44942;48.936;8.260;2023-05-10T04:24:11;1.00;;;0.83;;
59161;SDS011;44942;48.936;8.260;2023-05-10T04:29:12;3.63;;;1.10;;
59161;SDS011;44942;48.936;8.260;2023-05-10T04:34:12;2.40;;;1.60;;
59161;SDS011;44942;48.936;8.260;2023-05-10T04:39:13;1.88;;;1.20;;
59161;SDS011;44942;48.936;8.260;2023-05-10T04:44:14;4.43;;;1.50;;
59161;SDS011;44942;48.936;8.260;2023-05-10T04:49:14;2.07;;;1.40;;
59161;SDS011;44942;48.936;8.260;2023-05-10T04:54:15;11.03;;;1.90;;
59161;SDS011;44942;48.936;8.260;2023-05-10T04:59:15;12.40;;;2.00;;
59161;SDS011;44942;48.936;8.260;2023-05-10T05:04:16;9.77;;;1.77;;
59161;SDS011;44942;48.936;8.260;2023-05-10T05:09:17;2.47;;;1.45;;
59161;SDS011;44942;48.936;8.260;2023-05-10T05:14:17;3.73;;;1.77;;
59161;SDS011;44942;48.936;8.260;2023-05-10T05:19:18;5.37;;;1.70;;
59161;SDS011;44942;48.936;8.260;2023-05-10T05:24:18;2.53;;;2.08;;
59161;SDS011;44942;48.936;8.260;2023-05-10T05:29:19;1.60;;;1.50;;
59161;SDS011;44942;48.936;8.260;2023-05-10T05:34:20;1.70;;;1.50;;
59161;SDS011;44942;48.936;8.260;2023-05-10T05:39:21;3.25;;;1.30;;
59161;SDS011;44942;48.936;8.260;2023-05-10T05:44:22;2.78;;;1.33;;
59161;SDS011;44942;48.936;8.260;2023-05-10T05:49:22;2.37;;;1.37;;
59161;SDS011;44942;48.936;8.260;2023-05-10T05:54:23;1.77;;;1.30;;
59161;SDS011;44942;48.936;8.260;2023-05-10T05:59:24;1.97;;;1.07;;
59161;SDS011;44942;48.936;8.260;2023-05-10T06:04:24;2.17;;;1.17;;
59161;SDS011;44942;48.936;8.260;2023-05-10T06:09:25;3.13;;;1.30;;
59161;SDS011;44942;48.936;8.260;2023-05-10T06:14:25;3.42;;;1.20;;
59161;SDS011;44942;48.936;8.260;2023-05-10T06:19:26;2.58;;;1.10;;
59161;SDS011;44942;48.936;8.260;2023-05-10T06:24:27;1.17;;;0.97;;
59161;SDS011;44942;48.936;8.260;2023-05-10T06:29:27;1.03;;;0.90;;
59161;SDS011;44942;48.936;8.260;2023-05-10T06:34:28;2.23;;;1.13;;
59161;SDS011;44942;48.936;8.260;2023-05-10T06:39:28;1.83;;;1.10;;
59161;SDS011;44942;48.936;8.260;2023-05-10T06:44:29;2.00;;;1.13;;
59161;SDS011;44942;48.936;8.260;2023-05-10T06:49:30;3.15;;;1.20;;
59161;SDS011;44942;48.936;8.260;2023-05-10T06:54:30;3.72;;;1.15;;
59161;SDS011;44942;48.936;8.260;2023-05-10T06:59:31;2.07;;;1.10;;
59161;SDS011;44942;48.936;8.260;2023-05-10T07:04:31;1.37;;;0.97;;
59161;SDS011;44942;48.936;8.260;2023-05-10T07:09:32;2.20;;;1.00;;
59161;SDS011;44942;48.936;8.260;2023-05-10T07:14:33;1.70;;;1.00;;
59161;SDS011;44942;48.936;8.260;2023-05-10T07:19:33;1.73;;;0.97;;
59161;SDS011;44942;48.936;8.260;2023-05-10T07:24:34;2.55;;;0.85;;
59161;SDS011;44942;48.936;8.260;2023-05-10T07:29:35;17.33;;;1.17;;
59161;SDS011;44942;48.936;8.260;2023-05-10T07:34:36;4.13;;;0.80;;
59161;SDS011;44942;48.936;8.260;2023-05-10T07:39:36;3.17;;;0.87;;
59161;SDS011;44942;48.936;8.260;2023-05-10T07:44:37;1.83;;;1.00;;
59161;SDS011;44942;48.936;8.260;2023-05-10T07:49:37;1.20;;;0.90;;
59161;SDS011;44942;48.936;8.260;2023-05-10T07:54:38;0.63;;;0.60;;
59161;SDS011;44942;48.936;8.260;2023-05-10T07:59:38;3.67;;;0.87;;
59161;SDS011;44942;48.936;8.260;2023-05-10T08:04:39;3.83;;;0.83;;
59161;SDS011;44942;48.936;8.260;2023-05-10T08:09:40;4.97;;;1.00;;
59161;SDS011;44942;48.936;8.260;2023-05-10T08:14:40;5.83;;;1.07;;
59161;SDS011;44942;48.936;8.260;2023-05-10T08:19:41;3.53;;;1.00;;
59161;SDS011;44942;48.936;8.260;2023-05-10T08:24:42;4.80;;;0.80;;
59161;SDS011;44942;48.936;8.260;2023-05-10T08:29:42;4.17;;;1.00;;
59161;SDS011;44942;48.936;8.260;2023-05-10T08:34:43;5.80;;;1.20;;
59161;SDS011;44942;48.936;8.260;2023-05-10T08:39:43;1.37;;;0.80;;
59161;SDS011;44942;48.936;8.260;2023-05-10T08:44:45;1.90;;;0.70;;
59161;SDS011;44942;48.936;8.260;2023-05-10T08:49:48;1.83;;;0.70;;
59161;SDS011;44942;48.936;8.260;2023-05-10T08:54:51;1.98;;;0.90;;
59161;SDS011;44942;48.936;8.260;2023-05-10T08:59:52;1.67;;;0.80;;
59161;SDS011;44942;48.936;8.260;2023-05-10T09:04:53;3.00;;;0.93;;
59161;SDS011;44942;48.936;8.260;2023-05-10T09:09:53;2.20;;;0.80;;
59161;SDS011;44942;48.936;8.260;2023-05-10T09:14:54;2.50;;;0.73;;
59161;SDS011;44942;48.936;8.260;2023-05-10T09:20:00;1.38;;;0.90;;
59161;SDS011;44942;48.936;8.260;2023-05-10T09:25:06;1.58;;;0.70;;
59161;SDS011;44942;48.936;8.260;2023-05-10T09:30:14;1.58;;;0.80;;
59161;SDS011;44942;48.936;8.260;2023-05-10T09:35:17;2.40;;;0.70;;
59161;SDS011;44942;48.936;8.260;2023-05-10T09:40:23;2.50;;;0.70;;
59161;SDS011;44942;48.936;8.260;2023-05-10T09:45:26;2.08;;;0.98;;
59161;SDS011;44942;48.936;8.260;2023-05-10T09:50:28;3.58;;;0.80;;
59161;SDS011;44942;48.936;8.260;2023-05-10T10:00:44;4.63;;;0.85;;
59161;SDS011;44942;48.936;8.260;2023-05-10T10:05:48;4.22;;;1.00;;
59161;SDS011;44942;48.936;8.260;2023-05-10T10:10:48;1.75;;;0.90;;
59161;SDS011;44942;48.936;8.260;2023-05-10T10:15:49;1.25;;;0.70;;
59161;SDS011;44942;48.936;8.260;2023-05-10T10:20:52;3.03;;;0.93;;
59161;SDS011;44942;48.936;8.260;2023-05-10T10:25:54;3.08;;;1.15;;
59161;SDS011;44942;48.936;8.260;2023-05-10T10:30:55;1.75;;;1.20;;
59161;SDS011;44942;48.936;8.260;2023-05-10T10:36:00;2.20;;;1.27;;
59161;SDS011;44942;48.936;8.260;2023-05-10T10:41:03;2.40;;;1.23;;
59161;SDS011;44942;48.936;8.260;2023-05-10T10:46:10;2.15;;;1.20;;
59161;SDS011;44942;48.936;8.260;2023-05-10T10:51:17;1.92;;;1.20;;
59161;SDS011;44942;48.936;8.260;2023-05-10T10:56:18;2.03;;;1.40;;
59161;SDS011;44942;48.936;8.260;2023-05-10T11:01:23;2.88;;;1.30;;
59161;SDS011;44942;48.936;8.260;2023-05-10T11:06:32;2.88;;;1.27;;
59161;SDS011;44942;48.936;8.260;2023-05-10T11:11:35;2.15;;;1.20;;
59161;SDS011;44942;48.936;8.260;2023-05-10T11:16:42;1.52;;;1.20;;
59161;SDS011;44942;48.936;8.260;2023-05-10T11:22:29;2.13;;;1.20;;
59161;SDS011;44942;48.936;8.260;2023-05-10T11:27:05;1.50;;;1.17;;
59161;SDS011;44942;48.936;8.260;2023-05-10T11:32:06;3.00;;;1.30;;
59161;SDS011;44942;48.936;8.260;2023-05-10T11:37:08;1.60;;;1.10;;
59161;SDS011;44942;48.936;8.260;2023-05-10T11:42:08;1.40;;;0.83;;
59161;SDS011;44942;48.936;8.260;2023-05-10T11:47:11;2.08;;;0.90;;
59161;SDS011;44942;48.936;8.260;2023-05-10T11:52:12;2.63;;;1.10;;
59161;SDS011;44942;48.936;8.260;2023-05-10T11:57:12;2.97;;;1.00;;
59161;SDS011;44942;48.936;8.260;2023-05-10T12:02:13;1.93;;;0.90;;
59161;SDS011;44942;48.936;8.260;2023-05-10T12:07:14;2.92;;;0.90;;
59161;SDS011;44942;48.936;8.260;2023-05-10T12:12:16;1.23;;;0.70;;
59161;SDS011;44942;48.936;8.260;2023-05-10T12:17:17;1.83;;;1.10;;
59161;SDS011;44942;48.936;8.260;2023-05-10T12:22:20;2.63;;;0.87;;
59161;SDS011;44942;48.936;8.260;2023-05-10T12:27:21;0.95;;;0.82;;
59161;SDS011;44942;48.936;8.260;2023-05-10T12:32:21;3.47;;;1.10;;
59161;SDS011;44942;48.936;8.260;2023-05-10T12:37:38;1.00;;;0.88;;
59161;SDS011;44942;48.936;8.260;2023-05-10T12:42:39;1.65;;;1.10;;
59161;SDS011;44942;48.936;8.260;2023-05-10T12:47:40;1.38;;;1.02;;
59161;SDS011;44942;48.936;8.260;2023-05-10T12:52:40;1.17;;;0.90;;
59161;SDS011;44942;48.936;8.260;2023-05-10T12:57:41;2.23;;;0.90;;
59161;SDS011;44942;48.936;8.260;2023-05-10T13:02:41;1.10;;;1.00;;
59161;SDS011;44942;48.936;8.260;2023-05-10T13:07:42;1.27;;;0.90;;
59161;SDS011;44942;48.936;8.260;2023-05-10T13:17:44;1.27;;;0.87;;
59161;SDS011;44942;48.936;8.260;2023-05-10T13:22:45;2.40;;;1.05;;
59161;SDS011;44942;48.936;8.260;2023-05-10T13:27:45;1.97;;;0.80;;
59161;SDS011;44942;48.936;8.260;2023-05-10T13:32:46;1.33;;;0.90;;
59161;SDS011;44942;48.936;8.260;2023-05-10T13:37:46;2.07;;;1.00;;
59161;SDS011;44942;48.936;8.260;2023-05-10T13:42:47;7.87;;;1.63;;
59161;SDS011;44942;48.936;8.260;2023-05-10T13:47:48;3.50;;;1.10;;
59161;SDS011;44942;48.936;8.260;2023-05-10T13:52:48;2.77;;;1.07;;
59161;SDS011;44942;48.936;8.260;2023-05-10T13:57:49;1.98;;;1.10;;
59161;SDS011;44942;48.936;8.260;2023-05-10T14:02:49;1.30;;;1.00;;
59161;SDS011;44942;48.936;8.260;2023-05-10T14:07:50;1.40;;;1.00;;
59161;SDS011;44942;48.936;8.260;2023-05-10T14:12:51;1.75;;;1.00;;
59161;SDS011;44942;48.936;8.260;2023-05-10T14:17:51;1.13;;;1.00;;
59161;SDS011;44942;48.936;8.260;2023-05-10T14:22:52;1.60;;;1.00;;
59161;SDS011;44942;48.936;8.260;2023-05-10T14:27:52;1.27;;;0.90;;
59161;SDS011;44942;48.936;8.260;2023-05-10T14:32:54;1.52;;;1.10;;
59161;SDS011;44942;48.936;8.260;2023-05-10T14:37:55;1.02;;;0.93;;
59161;SDS011;44942;48.936;8.260;2023-05-10T14:42:55;1.60;;;1.03;;
59161;SDS011;44942;48.936;8.260;2023-05-10T14:47:57;2.70;;;1.27;;
59161;SDS011;44942;48.936;8.260;2023-05-10T14:53:00;3.35;;;1.00;;
59161;SDS011;44942;48.936;8.260;2023-05-10T14:58:03;3.77;;;1.20;;
59161;SDS011;44942;48.936;8.260;2023-05-10T15:03:04;2.25;;;1.20;;
59161;SDS011;44942;48.936;8.260;2023-05-10T15:08:05;3.30;;;1.10;;
59161;SDS011;44942;48.936;8.260;2023-05-10T15:13:05;2.17;;;1.00;;
59161;SDS011;44942;48.936;8.260;2023-05-10T15:18:06;1.73;;;0.90;;
59161;SDS011;44942;48.936;8.260;2023-05-10T15:23:07;3.43;;;1.30;;
59161;SDS011;44942;48.936;8.260;2023-05-10T15:28:07;2.03;;;1.20;;
59161;SDS011;44942;48.936;8.260;2023-05-10T15:33:08;1.77;;;1.17;;
59161;SDS011;44942;48.936;8.260;2023-05-10T15:38:09;1.67;;;0.80;;
59161;SDS011;44942;48.936;8.260;2023-05-10T15:43:09;1.80;;;0.93;;
59161;SDS011;44942;48.936;8.260;2023-05-10T15:48:10;3.80;;;0.97;;
59161;SDS011;44942;48.936;8.260;2023-05-10T15:53:11;1.27;;;0.80;;
59161;SDS011;44942;48.936;8.260;2023-05-10T15:58:11;2.50;;;0.80;;
59161;SDS011;44942;48.936;8.260;2023-05-10T16:03:12;2.87;;;0.80;;
59161;SDS011;44942;48.936;8.260;2023-05-10T16:08:12;1.27;;;0.70;;
59161;SDS011;44942;48.936;8.260;2023-05-10T16:13:13;1.05;;;0.73;;
59161;SDS011;44942;48.936;8.260;2023-05-10T16:18:14;1.45;;;0.70;;
59161;SDS011;44942;48.936;8.260;2023-05-10T16:23:16;1.17;;;0.65;;
59161;SDS011;44942;48.936;8.260;2023-05-10T16:28:17;2.80;;;0.83;;
59161;SDS011;44942;48.936;8.260;2023-05-10T16:33:20;1.48;;;0.70;;
59161;SDS011;44942;48.936;8.260;2023-05-10T16:38:20;0.80;;;0.60;;
59161;SDS011;44942;48.936;8.260;2023-05-10T16:43:21;1.73;;;0.70;;
59161;SDS011;44942;48.936;8.260;2023-05-10T16:48:21;1.80;;;0.68;;
59161;SDS011;44942;48.936;8.260;2023-05-10T16:53:22;2.75;;;0.50;;
59161;SDS011;44942;48.936;8.260;2023-05-10T16:58:23;2.23;;;0.40;;
59161;SDS011;44942;48.936;8.260;2023-05-10T17:03:27;1.48;;;0.50;;
59161;SDS011;44942;48.936;8.260;2023-05-10T17:08:27;1.00;;;0.70;;
59161;SDS011;44942;48.936;8.260;2023-05-10T17:13:28;1.67;;;0.50;;
59161;SDS011;44942;48.936;8.260;2023-05-10T17:18:29;1.85;;;0.60;;
59161;SDS011;44942;48.936;8.260;2023-05-10T17:23:30;2.92;;;0.63;;
59161;SDS011;44942;48.936;8.260;2023-05-10T17:28:30;3.50;;;0.57;;
59161;SDS011;44942;48.936;8.260;2023-05-10T17:33:31;0.60;;;0.60;;
59161;SDS011;44942;48.936;8.260;2023-05-10T17:38:32;3.37;;;0.67;;
59161;SDS011;44942;48.936;8.260;2023-05-10T17:43:32;2.77;;;0.60;;
59161;SDS011;44942;48.936;8.260;2023-05-10T17:48:33;0.53;;;0.50;;
59161;SDS011;44942;48.936;8.260;2023-05-10T17:53:35;1.08;;;0.43;;
59161;SDS011;44942;48.936;8.260;2023-05-10T17:58:36;0.73;;;0.47;;
59161;SDS011;44942;48.936;8.260;2023-05-10T18:03:37;2.00;;;0.50;;
59161;SDS011;44942;48.936;8.260;2023-05-10T18:08:37;0.50;;;0.40;;
59161;SDS011;44942;48.936;8.260;2023-05-10T18:13:38;0.50;;;0.40;;
59161;SDS011;44942;48.936;8.260;2023-05-10T18:18:39;1.00;;;0.60;;
59161;SDS011;44942;48.936;8.260;2023-05-10T18:23:39;0.40;;;0.40;;
59161;SDS011;44942;48.936;8.260;2023-05-10T18:28:40;2.20;;;0.50;;
59161;SDS011;44942;48.936;8.260;2023-05-10T18:33:41;1.80;;;0.43;;
59161;SDS011;44942;48.936;8.260;2023-05-10T18:38:41;1.43;;;0.60;;
59161;SDS011;44942;48.936;8.260;2023-05-10T18:43:42;7.53;;;0.93;;
59161;SDS011;44942;48.936;8.260;2023-05-10T18:48:43;2.05;;;0.70;;
59161;SDS011;44942;48.936;8.260;2023-05-10T18:53:43;1.23;;;0.50;;
59161;SDS011;44942;48.936;8.260;2023-05-10T18:58:44;0.90;;;0.47;;
59161;SDS011;44942;48.936;8.260;2023-05-10T19:03:45;6.13;;;0.90;;
59161;SDS011;44942;48.936;8.260;2023-05-10T19:08:45;6.03;;;0.80;;
59161;SDS011;44942;48.936;8.260;2023-05-10T19:13:46;6.17;;;0.80;;
59161;SDS011;44942;48.936;8.260;2023-05-10T19:18:46;8.53;;;0.40;;
59161;SDS011;44942;48.936;8.260;2023-05-10T19:23:47;6.53;;;0.67;;
59161;SDS011;44942;48.936;8.260;2023-05-10T19:28:50;2.80;;;0.70;;
59161;SDS011;44942;48.936;8.260;2023-05-10T19:33:51;1.83;;;1.02;;
59161;SDS011;44942;48.936;8.260;2023-05-10T19:38:52;1.90;;;0.70;;
59161;SDS011;44942;48.936;8.260;2023-05-10T19:43:53;1.90;;;0.80;;
59161;SDS011;44942;48.936;8.260;2023-05-10T19:48:54;3.13;;;0.52;;
59161;SDS011;44942;48.936;8.260;2023-05-10T19:53:54;4.83;;;0.67;;
59161;SDS011;44942;48.936;8.260;2023-05-10T19:58:55;1.20;;;0.70;;
59161;SDS011;44942;48.936;8.260;2023-05-10T20:03:55;1.60;;;0.80;;
59161;SDS011;44942;48.936;8.260;2023-05-10T20:08:56;1.17;;;0.70;;
59161;SDS011;44942;48.936;8.260;2023-05-10T20:13:56;1.40;;;0.73;;
59161;SDS011;44942;48.936;8.260;2023-05-10T20:18:57;2.97;;;0.90;;
59161;SDS011;44942;48.936;8.260;2023-05-10T20:23:58;1.63;;;0.80;;
59161;SDS011;44942;48.936;8.260;2023-05-10T20:28:58;1.00;;;0.80;;
59161;SDS011;44942;48.936;8.260;2023-05-10T20:33:59;1.13;;;0.67;;
59161;SDS011;44942;48.936;8.260;2023-05-10T20:38:59;0.90;;;0.80;;
59161;SDS011;44942;48.936;8.260;2023-05-10T20:44:00;1.70;;;0.80;;
59161;SDS011;44942;48.936;8.260;2023-05-10T20:49:01;0.85;;;0.70;;
59161;SDS011;44942;48.936;8.260;2023-05-10T20:54:01;1.60;;;0.63;;
59161;SDS011;44942;48.936;8.260;2023-05-10T20:59:03;1.98;;;0.60;;
59161;SDS011;44942;48.936;8.260;2023-05-10T21:04:03;3.07;;;0.80;;
59161;SDS011;44942;48.936;8.260;2023-05-10T21:09:04;1.73;;;0.93;;
59161;SDS011;44942;48.936;8.260;2023-05-10T21:14:05;2.20;;;0.97;;
59161;SDS011;44942;48.936;8.260;2023-05-10T21:19:06;2.80;;;1.00;;
59161;SDS011;44942;48.936;8.260;2023-05-10T21:24:07;1.05;;;0.70;;
59161;SDS011;44942;48.936;8.260;2023-05-10T21:29:08;0.83;;;0.60;;
59161;SDS011;44942;48.936;8.260;2023-05-10T21:34:08;1.17;;;0.80;;
59161;SDS011;44942;48.936;8.260;2023-05-10T21:39:09;1.67;;;0.80;;
59161;SDS011;44942;48.936;8.260;2023-05-10T21:44:10;2.33;;;0.80;;
59161;SDS011;44942;48.936;8.260;2023-05-10T21:49:11;1.83;;;0.80;;
59161;SDS011;44942;48.936;8.260;2023-05-10T21:54:12;1.23;;;0.60;;
59161;SDS011;44942;48.936;8.260;2023-05-10T21:59:12;1.10;;;0.77;;
59161;SDS011;44942;48.936;8.260;2023-05-10T22:04:13;2.28;;;0.85;;
59161;SDS011;44942;48.936;8.260;2023-05-10T22:09:14;2.53;;;0.87;;
59161;SDS011;44942;48.936;8.260;2023-05-10T22:14:14;1.27;;;0.70;;
59161;SDS011;44942;48.936;8.260;2023-05-10T22:19:15;2.17;;;0.70;;
59161;SDS011;44942;48.936;8.260;2023-05-10T22:24:16;0.77;;;0.70;;
59161;SDS011;44942;48.936;8.260;2023-05-10T22:29:16;1.17;;;0.60;;
59161;SDS011;44942;48.936;8.260;2023-05-10T22:34:17;0.90;;;0.80;;
59161;SDS011;44942;48.936;8.260;2023-05-10T22:39:17;1.37;;;0.80;;
59161;SDS011;44942;48.936;8.260;2023-05-10T22:44:18;1.50;;;0.80;;
59161;SDS011;44942;48.936;8.260;2023-05-10T22:49:19;1.48;;;0.82;;
59161;SDS011;44942;48.936;8.260;2023-05-10T22:54:19;1.20;;;0.80;;
59161;SDS011;44942;48.936;8.260;2023-05-10T22:59:20;1.73;;;0.90;;
59161;SDS011;44942;48.936;8.260;2023-05-10T23:04:21;1.25;;;0.80;;
59161;SDS011;44942;48.936;8.260;2023-05-10T23:09:21;0.80;;;0.80;;
59161;SDS011;44942;48.936;8.260;2023-05-10T23:14:22;1.13;;;0.73;;
59161;SDS011;44942;48.936;8.260;2023-05-10T23:19:22;2.13;;;1.02;;
59161;SDS011;44942;48.936;8.260;2023-05-10T23:24:23;1.70;;;0.80;;
59161;SDS011;44942;48.936;8.260;2023-05-10T23:34:25;1.67;;;0.90;;
59161;SDS011;44942;48.936;8.260;2023-05-10T23:39:26;1.00;;;0.83;;
59161;SDS011;44942;48.936;8.260;2023-05-10T23:44:26;1.27;;;0.80;;
59161;SDS011;44942;48.936;8.260;2023-05-10T23:49:27;1.70;;;0.90;;
59161;SDS011;44942;48.936;8.260;2023-05-10T23:54:28;1.05;;;0.90;;
59161;SDS011;44942;48.936;8.260;2023-05-10T23:59:29;1.10;;;0.70;;
